createdAt,value
2022-12-18T00:02:17.962Z,80.73
2022-12-18T00:04:47.629Z,80.95
2022-12-18T00:07:22.375Z,81.18
2022-12-18T00:09:57.751Z,81.32
2022-12-18T00:12:31.771Z,81.33
2022-12-18T00:15:00.869Z,81.81
2022-12-18T00:17:41.275Z,81.39
2022-12-18T00:20:13.760Z,81.22
2022-12-18T00:22:40.938Z,81.71
2022-12-18T00:25:19.910Z,82.00
2022-12-18T00:27:52.451Z,81.04
2022-12-18T00:30:22.872Z,80.95
2022-12-18T00:32:55.233Z,80.47
2022-12-18T00:36:05.092Z,81.26
2022-12-18T00:38:50.214Z,81.71
2022-12-18T00:41:46.485Z,82.31
2022-12-18T00:44:18.925Z,81.68
2022-12-18T00:46:47.465Z,81.95
2022-12-18T00:49:21.253Z,81.46
2022-12-18T00:51:52.470Z,82.09
2022-12-18T00:54:22.897Z,81.95
2022-12-18T00:56:57.811Z,82.22
2022-12-18T00:59:24.990Z,82.32
2022-12-18T01:02:01.399Z,82.24
2022-12-18T01:04:35.255Z,82.22
2022-12-18T01:07:10.873Z,81.96
2022-12-18T01:09:39.197Z,81.71
2022-12-18T01:12:11.469Z,82.13
2022-12-18T01:14:41.530Z,81.91
2022-12-18T01:17:29.985Z,82.04
2022-12-18T01:20:08.773Z,82.59
2022-12-18T01:22:38.455Z,81.63
2022-12-18T01:25:14.702Z,80.80
2022-12-18T01:27:54.027Z,80.17
2022-12-18T01:30:27.593Z,80.67
2022-12-18T01:33:00.967Z,81.70
2022-12-18T01:35:44.205Z,80.97
2022-12-18T01:38:28.228Z,83.02
2022-12-18T01:41:22.696Z,83.63
2022-12-18T01:44:01.542Z,82.74
2022-12-18T01:46:33.452Z,82.17
2022-12-18T01:49:32.717Z,81.18
2022-12-18T01:52:09.868Z,81.50
2022-12-18T01:54:37.679Z,82.46
2022-12-18T01:58:01.885Z,81.46
2022-12-18T02:00:54.956Z,82.36
2022-12-18T02:03:23.591Z,82.27
2022-12-18T02:06:13.925Z,80.95
2022-12-18T02:08:50.596Z,80.72
2022-12-18T02:11:53.077Z,80.80
2022-12-18T02:14:30.710Z,81.84
2022-12-18T02:17:13.933Z,82.65
2022-12-18T02:20:08.782Z,83.02
2022-12-18T02:22:45.439Z,82.48
2022-12-18T02:25:41.950Z,83.27
2022-12-18T02:28:17.070Z,83.00
2022-12-18T02:30:50.041Z,84.40
2022-12-18T02:33:28.413Z,82.58
2022-12-18T02:36:15.527Z,82.52
2022-12-18T02:38:52.946Z,82.74
2022-12-18T02:41:24.181Z,84.37
2022-12-18T02:44:08.452Z,83.53
2022-12-18T02:46:45.514Z,82.99
2022-12-18T02:49:33.829Z,82.69
2022-12-18T02:52:18.513Z,83.58
2022-12-18T02:54:59.139Z,83.83
2022-12-18T02:58:01.518Z,82.94
2022-12-18T03:00:43.774Z,83.27
2022-12-18T03:03:22.931Z,83.64
2022-12-18T03:06:15.546Z,83.41
2022-12-18T03:08:56.164Z,84.31
2022-12-18T03:11:49.893Z,83.86
2022-12-18T03:14:25.332Z,82.71
2022-12-18T03:17:07.437Z,82.94
2022-12-18T03:19:38.052Z,81.99
2022-12-18T03:22:16.868Z,82.00
2022-12-18T03:24:52.612Z,83.51
2022-12-18T03:27:27.037Z,83.11
2022-12-18T03:30:25.925Z,83.40
2022-12-18T03:33:05.208Z,82.83
2022-12-18T03:35:43.439Z,82.38
2022-12-18T03:38:19.105Z,82.04
2022-12-18T03:40:52.524Z,83.00
2022-12-18T03:43:53.515Z,83.13
2022-12-18T03:46:39.818Z,83.97
2022-12-18T03:49:54.082Z,82.74
2022-12-18T03:53:00.168Z,82.54
2022-12-18T03:55:35.589Z,83.38
2022-12-18T03:58:25.562Z,83.07
2022-12-18T04:01:15.515Z,83.70
2022-12-18T04:03:48.033Z,83.98
2022-12-18T04:06:25.943Z,83.09
2022-12-18T04:09:05.184Z,83.45
2022-12-18T04:11:50.037Z,83.55
2022-12-18T04:14:18.271Z,84.31
2022-12-18T04:16:54.626Z,82.62
2022-12-18T04:19:31.581Z,83.36
2022-12-18T04:22:07.328Z,83.73
2022-12-18T04:24:43.542Z,82.99
2022-12-18T04:27:21.621Z,83.71
2022-12-18T04:29:56.677Z,83.85
2022-12-18T04:32:39.159Z,83.39
2022-12-18T04:35:23.254Z,84.06
2022-12-18T04:38:00.313Z,83.29
2022-12-18T04:40:33.271Z,83.26
2022-12-18T04:43:07.846Z,83.59
2022-12-18T04:45:37.657Z,82.75
2022-12-18T04:48:05.175Z,82.66
2022-12-18T04:50:35.561Z,83.81
2022-12-18T04:53:08.258Z,83.00
2022-12-18T04:55:37.776Z,82.96
2022-12-18T04:58:07.139Z,82.79
2022-12-18T05:00:41.550Z,83.22
2022-12-18T05:03:18.423Z,83.18
2022-12-18T05:05:48.402Z,83.43
2022-12-18T05:08:17.713Z,84.14
2022-12-18T05:10:51.181Z,82.75
2022-12-18T05:13:24.273Z,80.92
2022-12-18T05:15:59.871Z,81.39
2022-12-18T05:18:31.297Z,81.42
2022-12-18T05:20:59.334Z,82.06
2022-12-18T05:23:30.151Z,81.73
2022-12-18T05:26:06.910Z,81.33
2022-12-18T05:29:07.782Z,80.85
2022-12-18T05:31:54.413Z,81.08
2022-12-18T05:34:28.679Z,80.86
2022-12-18T05:36:58.339Z,80.96
2022-12-18T05:39:44.117Z,80.68
2022-12-18T05:42:36.020Z,80.73
2022-12-18T05:45:07.135Z,80.72
2022-12-18T05:47:58.058Z,80.97
2022-12-18T05:50:27.569Z,80.44
2022-12-18T05:53:07.208Z,80.06
2022-12-18T05:55:59.242Z,80.70
2022-12-18T05:58:31.695Z,79.65
2022-12-18T06:01:11.524Z,79.15
2022-12-18T06:03:59.847Z,79.30
2022-12-18T06:06:39.042Z,79.80
2022-12-18T06:09:20.180Z,80.20
2022-12-18T06:11:58.426Z,80.77
2022-12-18T06:14:41.131Z,79.58
2022-12-18T06:17:13.362Z,81.79
2022-12-18T06:19:51.918Z,80.57
2022-12-18T06:22:24.561Z,82.30
2022-12-18T06:24:58.762Z,80.79
2022-12-18T06:27:31.234Z,79.66
2022-12-18T06:30:01.108Z,81.77
2022-12-18T06:32:28.309Z,83.57
2022-12-18T06:35:02.600Z,82.96
2022-12-18T06:37:38.043Z,80.13
2022-12-18T06:40:12.917Z,79.97
2022-12-18T06:42:42.715Z,80.70
2022-12-18T06:45:13.060Z,81.27
2022-12-18T06:47:43.631Z,81.37
2022-12-18T06:50:20.626Z,81.09
2022-12-18T06:52:48.273Z,81.09
2022-12-18T06:55:15.403Z,80.28
2022-12-18T06:57:48.019Z,81.22
2022-12-18T07:00:20.203Z,81.71
2022-12-18T07:02:58.686Z,81.95
2022-12-18T07:05:30.582Z,81.82
2022-12-18T07:08:11.251Z,81.48
2022-12-18T07:10:48.226Z,81.21
2022-12-18T07:13:21.772Z,81.72
2022-12-18T07:15:51.417Z,81.38
2022-12-18T07:18:21.277Z,80.90
2022-12-18T07:20:59.726Z,79.98
2022-12-18T07:23:44.195Z,81.31
2022-12-18T07:26:20.692Z,79.24
2022-12-18T07:28:54.465Z,79.51
2022-12-18T07:31:26.308Z,78.77
2022-12-18T07:33:58.793Z,79.97
2022-12-18T07:36:29.570Z,80.27
2022-12-18T07:39:07.714Z,80.21
2022-12-18T07:41:45.205Z,79.89
2022-12-18T07:44:19.108Z,80.47
2022-12-18T07:46:54.406Z,80.76
2022-12-18T07:49:30.015Z,81.92
2022-12-18T07:52:06.413Z,80.25
2022-12-18T07:54:40.730Z,81.14
2022-12-18T07:57:41.443Z,79.74
2022-12-18T08:00:03.485Z,81.38
2022-12-18T08:02:45.509Z,79.95
2022-12-18T08:05:15.070Z,80.58
2022-12-18T08:07:46.829Z,79.99
2022-12-18T08:10:32.833Z,80.34
2022-12-18T08:13:04.600Z,80.91
2022-12-18T08:15:42.939Z,81.27
2022-12-18T08:18:26.909Z,81.03
2022-12-18T08:20:55.500Z,79.48
2022-12-18T08:23:26.533Z,77.58
2022-12-18T08:25:59.581Z,77.98
2022-12-18T08:28:45.757Z,78.64
2022-12-18T08:31:32.190Z,79.90
2022-12-18T08:34:27.149Z,79.46
2022-12-18T08:36:54.430Z,78.71
2022-12-18T08:39:27.301Z,79.75
2022-12-18T08:42:15.284Z,80.61
2022-12-18T08:44:53.981Z,80.17
2022-12-18T08:47:40.413Z,80.75
2022-12-18T08:50:14.345Z,81.49
2022-12-18T08:52:52.206Z,81.28
2022-12-18T08:55:31.739Z,80.33
2022-12-18T08:58:05.109Z,80.19
2022-12-18T09:00:37.474Z,79.84
2022-12-18T09:03:18.512Z,79.70
2022-12-18T09:05:48.729Z,79.82
2022-12-18T09:08:26.755Z,79.00
2022-12-18T09:10:54.204Z,81.30
2022-12-18T09:13:49.678Z,80.69
2022-12-18T09:16:27.399Z,81.46
2022-12-18T09:19:04.113Z,80.58
2022-12-18T09:21:35.976Z,80.16
2022-12-18T09:24:19.903Z,79.98
2022-12-18T09:26:54.789Z,80.07
2022-12-18T09:29:30.060Z,79.89
2022-12-18T09:32:05.027Z,80.21
2022-12-18T09:34:35.231Z,79.63
2022-12-18T09:37:02.403Z,79.33
2022-12-18T09:39:42.742Z,79.28
2022-12-18T09:42:38.102Z,80.37
2022-12-18T09:45:11.298Z,80.51
2022-12-18T09:47:53.074Z,78.29
2022-12-18T09:50:24.906Z,81.01
2022-12-18T09:52:58.427Z,80.80
2022-12-18T09:55:39.183Z,79.31
2022-12-18T09:58:33.480Z,81.08
2022-12-18T10:01:03.349Z,80.07
2022-12-18T10:03:35.826Z,81.24
2022-12-18T10:06:24.737Z,81.32
2022-12-18T10:09:17.407Z,81.07
2022-12-18T10:12:42.341Z,79.86
2022-12-18T10:15:38.285Z,79.29
2022-12-18T10:18:39.323Z,78.39
2022-12-18T10:21:24.738Z,78.35
2022-12-18T10:24:06.024Z,79.18
2022-12-18T10:26:36.479Z,79.16
2022-12-18T10:29:19.197Z,79.96
2022-12-18T10:31:49.467Z,78.71
2022-12-18T10:34:28.888Z,78.94
2022-12-18T10:37:03.308Z,78.79
2022-12-18T10:39:39.405Z,79.98
2022-12-18T10:42:27.243Z,79.33
2022-12-18T10:45:22.643Z,80.30
2022-12-18T10:47:53.442Z,81.28
2022-12-18T10:53:46.508Z,79.65
2022-12-18T10:56:32.656Z,80.36
2022-12-18T10:59:06.935Z,80.75
2022-12-18T11:01:59.119Z,80.85
2022-12-18T11:04:32.367Z,79.96
2022-12-18T11:07:16.468Z,81.46
2022-12-18T11:10:17.848Z,81.75
2022-12-18T11:12:55.615Z,81.08
2022-12-18T11:19:54.218Z,80.45
2022-12-18T11:22:31.449Z,80.34
2022-12-18T11:28:30.219Z,81.23
2022-12-18T11:31:28.448Z,80.70
2022-12-18T11:34:27.387Z,80.03
2022-12-18T11:37:05.277Z,80.82
2022-12-18T11:39:46.562Z,80.46
2022-12-18T11:42:51.147Z,79.93
2022-12-18T11:45:47.158Z,79.47
2022-12-18T11:48:30.888Z,79.66
2022-12-18T11:51:04.127Z,80.14
2022-12-18T11:53:32.071Z,79.67
2022-12-18T11:56:27.579Z,78.68
2022-12-18T11:59:29.468Z,79.05
2022-12-18T12:02:26.231Z,80.42
2022-12-18T12:05:32.068Z,78.80
2022-12-18T12:08:25.213Z,78.06
2022-12-18T12:11:18.238Z,77.48
2022-12-18T12:14:07.051Z,77.65
2022-12-18T12:16:43.309Z,78.54
2022-12-18T12:19:33.639Z,79.35
2022-12-18T12:22:44.767Z,80.66
2022-12-18T12:25:40.494Z,78.47
2022-12-18T12:28:40.829Z,77.61
2022-12-18T12:31:48.849Z,78.57
2022-12-18T12:34:22.037Z,79.51
2022-12-18T12:37:25.092Z,78.94
2022-12-18T12:39:59.864Z,79.08
2022-12-18T12:43:03.139Z,79.12
2022-12-18T12:46:07.838Z,78.53
2022-12-18T12:48:46.117Z,78.84
2022-12-18T12:51:29.131Z,78.48
2022-12-18T12:54:03.705Z,79.28
2022-12-18T12:56:51.675Z,79.06
2022-12-18T12:59:49.965Z,78.50
2022-12-18T13:02:27.130Z,78.64
2022-12-18T13:05:11.217Z,78.47
2022-12-18T13:08:00.811Z,78.86
2022-12-18T13:10:46.230Z,78.50
2022-12-18T13:13:25.628Z,78.03
2022-12-18T13:16:21.050Z,77.79
2022-12-18T13:18:58.774Z,77.39
2022-12-18T13:21:36.645Z,77.88
2022-12-18T13:24:27.128Z,78.58
2022-12-18T13:27:28.809Z,78.35
2022-12-18T13:29:59.214Z,78.59
2022-12-18T13:32:39.426Z,79.11
2022-12-18T13:35:21.537Z,79.46
2022-12-18T13:37:58.710Z,79.11
2022-12-18T13:40:50.040Z,79.56
2022-12-18T13:46:30.113Z,79.71
2022-12-18T13:49:20.906Z,79.64
2022-12-18T13:51:58.026Z,79.78
2022-12-18T13:54:46.749Z,80.36
2022-12-18T13:57:45.224Z,80.34
2022-12-18T14:00:24.218Z,80.98
2022-12-18T14:03:00.032Z,81.18
2022-12-18T14:05:43.431Z,81.54
2022-12-18T14:08:17.485Z,82.32
2022-12-18T14:10:53.306Z,82.29
2022-12-18T14:13:47.812Z,82.26
2022-12-18T14:16:23.231Z,82.00
2022-12-18T14:19:11.772Z,82.29
2022-12-18T14:21:55.129Z,82.28
2022-12-18T14:24:27.582Z,83.51
2022-12-18T14:26:54.710Z,82.56
2022-12-18T14:29:24.267Z,82.32
2022-12-18T14:32:15.016Z,83.12
2022-12-18T14:35:14.901Z,83.90
2022-12-18T14:37:47.370Z,83.70
2022-12-18T14:40:17.586Z,82.73
2022-12-18T14:42:58.035Z,82.53
2022-12-18T14:45:44.093Z,82.97
2022-12-18T14:48:53.563Z,83.59
2022-12-18T14:51:31.880Z,83.50
2022-12-18T14:54:05.381Z,83.13
2022-12-18T14:56:35.823Z,83.50
2022-12-18T14:59:32.719Z,84.04
2022-12-18T15:02:25.209Z,84.31
2022-12-18T15:05:29.106Z,84.16
2022-12-18T15:08:01.726Z,84.22
2022-12-18T15:10:35.436Z,84.80
2022-12-18T15:13:05.478Z,84.52
2022-12-18T15:15:38.766Z,84.60
2022-12-18T15:18:22.575Z,84.42
2022-12-18T15:21:11.062Z,84.55
2022-12-18T15:23:58.706Z,84.25
2022-12-18T15:27:05.183Z,83.97
2022-12-18T15:29:37.900Z,84.59
2022-12-18T15:32:32.171Z,84.39
2022-12-18T15:35:31.617Z,85.18
2022-12-18T15:38:03.594Z,85.18
2022-12-18T15:40:39.786Z,85.04
2022-12-18T15:43:27.764Z,84.96
2022-12-18T15:46:04.156Z,84.05
2022-12-18T15:48:49.704Z,84.62
2022-12-18T15:51:40.998Z,83.77
2022-12-18T15:54:18.687Z,84.51
2022-12-18T15:57:08.067Z,85.90
2022-12-18T15:59:46.061Z,86.13
2022-12-18T16:02:24.783Z,86.80
2022-12-18T16:04:55.180Z,86.21
2022-12-18T16:07:28.106Z,83.67
2022-12-18T16:10:07.853Z,84.43
2022-12-18T16:12:37.419Z,85.49
2022-12-18T16:15:12.263Z,84.54
2022-12-18T16:17:44.665Z,84.56
2022-12-18T16:20:31.687Z,84.68
2022-12-18T16:23:04.192Z,85.01
2022-12-18T16:25:34.230Z,83.99
2022-12-18T16:28:05.498Z,84.68
2022-12-18T16:30:42.951Z,85.27
2022-12-18T16:36:04.067Z,84.89
2022-12-18T16:38:34.559Z,84.32
2022-12-18T16:41:45.959Z,84.95
2022-12-18T16:44:22.181Z,84.75
2022-12-18T16:47:10.345Z,85.37
2022-12-18T16:49:46.641Z,84.80
2022-12-18T16:52:17.867Z,84.88
2022-12-18T16:54:47.798Z,84.99
2022-12-18T16:57:22.679Z,83.87
2022-12-18T16:59:57.648Z,84.98
2022-12-18T17:02:31.800Z,84.33
2022-12-18T17:05:02.748Z,84.16
2022-12-18T17:07:50.187Z,84.43
2022-12-18T17:10:29.975Z,85.82
2022-12-18T17:12:59.866Z,86.38
2022-12-18T17:15:27.193Z,87.24
2022-12-18T17:17:57.496Z,86.40
2022-12-18T17:20:24.589Z,85.27
2022-12-18T17:22:58.706Z,84.59
2022-12-18T17:25:37.074Z,85.83
2022-12-18T17:28:16.379Z,85.79
2022-12-18T17:30:43.748Z,85.77
2022-12-18T17:33:24.288Z,85.72
2022-12-18T17:35:57.098Z,85.44
2022-12-18T17:38:34.729Z,86.34
2022-12-18T17:41:07.261Z,86.41
2022-12-18T17:43:52.873Z,86.83
2022-12-18T17:46:20.551Z,86.23
2022-12-18T17:48:51.543Z,86.09
2022-12-18T17:51:23.090Z,86.06
2022-12-18T17:54:00.009Z,86.13
2022-12-18T17:56:28.457Z,85.78
2022-12-18T17:58:56.076Z,85.86
2022-12-18T18:01:29.444Z,86.81
2022-12-18T18:04:07.423Z,86.82
2022-12-18T18:06:39.229Z,87.40
2022-12-18T18:09:16.409Z,87.61
2022-12-18T18:12:12.374Z,87.41
2022-12-18T18:14:44.587Z,86.69
2022-12-18T18:17:16.547Z,86.19
2022-12-18T18:19:49.466Z,86.74
2022-12-18T18:22:20.420Z,86.53
2022-12-18T18:24:50.127Z,88.08
2022-12-18T18:27:22.419Z,87.14
2022-12-18T18:29:50.840Z,85.92
2022-12-18T18:32:20.971Z,86.02
2022-12-18T18:34:57.034Z,87.48
2022-12-18T18:37:28.817Z,86.85
2022-12-18T18:39:56.915Z,86.65
2022-12-18T18:42:27.723Z,86.18
2022-12-18T18:44:59.360Z,86.53
2022-12-18T18:47:30.993Z,86.15
2022-12-18T18:50:13.001Z,85.75
2022-12-18T18:52:42.922Z,86.67
2022-12-18T18:55:25.295Z,86.48
2022-12-18T18:57:58.257Z,85.98
2022-12-18T19:00:38.807Z,85.89
2022-12-18T19:03:10.274Z,84.90
2022-12-18T19:05:50.740Z,84.64
2022-12-18T19:08:44.576Z,85.35
2022-12-18T19:11:36.704Z,84.84
2022-12-18T19:14:09.531Z,85.32
2022-12-18T19:16:48.525Z,84.74
2022-12-18T19:19:22.076Z,86.75
2022-12-18T19:21:50.894Z,87.85
2022-12-18T19:24:23.908Z,88.23
2022-12-18T19:27:01.977Z,86.96
2022-12-18T19:29:34.758Z,85.68
2022-12-18T19:32:09.826Z,85.69
2022-12-18T19:34:49.907Z,87.13
2022-12-18T19:37:25.557Z,86.37
2022-12-18T19:39:54.967Z,86.96
2022-12-18T19:42:35.786Z,86.13
2022-12-18T19:45:17.918Z,86.75
2022-12-18T19:48:21.661Z,86.66
2022-12-18T19:50:56.623Z,85.49
2022-12-18T19:53:29.163Z,85.13
2022-12-18T19:56:01.467Z,84.48
2022-12-18T19:58:29.217Z,84.05
2022-12-18T20:01:02.532Z,84.38
2022-12-18T20:03:41.744Z,85.56
2022-12-18T20:06:16.696Z,84.66
2022-12-18T20:08:44.116Z,84.06
2022-12-18T20:11:15.956Z,83.45
2022-12-18T20:13:50.770Z,85.58
2022-12-18T20:16:24.138Z,86.51
2022-12-18T20:18:57.719Z,86.75
2022-12-18T20:21:25.851Z,85.60
2022-12-18T20:24:07.002Z,84.41
2022-12-18T20:26:39.326Z,84.71
2022-12-18T20:29:16.182Z,83.57
2022-12-18T20:31:52.950Z,84.45
2022-12-18T20:34:33.303Z,84.68
2022-12-18T20:37:03.981Z,84.59
2022-12-18T20:39:38.504Z,84.45
2022-12-18T20:42:12.746Z,85.80
2022-12-18T20:44:42.434Z,85.76
2022-12-18T20:47:16.057Z,86.67
2022-12-18T20:49:45.748Z,86.65
2022-12-18T20:52:26.876Z,88.69
2022-12-18T20:54:58.145Z,90.97
2022-12-18T20:57:34.268Z,88.20
2022-12-18T21:00:06.892Z,89.91
2022-12-18T21:02:42.439Z,89.60
2022-12-18T21:05:11.109Z,88.65
2022-12-18T21:07:38.305Z,87.29
2022-12-18T21:10:13.436Z,86.27
2022-12-18T21:13:00.023Z,86.07
2022-12-18T21:15:37.711Z,86.55
2022-12-18T21:18:25.248Z,86.87
2022-12-18T21:21:05.887Z,87.85
2022-12-18T21:23:44.035Z,86.37
2022-12-18T21:26:25.883Z,87.20
2022-12-18T21:29:04.365Z,87.33
2022-12-18T21:31:43.147Z,86.57
2022-12-18T21:34:21.459Z,86.48
2022-12-18T21:36:57.295Z,87.25
2022-12-18T21:39:43.993Z,89.26
2022-12-18T21:42:33.048Z,89.92
2022-12-18T21:45:09.106Z,90.54
2022-12-18T21:47:49.728Z,90.48
2022-12-18T21:50:17.599Z,89.11
2022-12-18T21:52:44.719Z,89.19
2022-12-18T21:55:13.091Z,90.03
2022-12-18T21:57:40.262Z,90.06
2022-12-18T22:00:19.298Z,91.42
2022-12-18T22:03:13.396Z,90.95
2022-12-18T22:05:46.257Z,90.22
2022-12-18T22:08:18.719Z,89.48
2022-12-18T22:10:52.046Z,90.70
2022-12-18T22:13:22.193Z,89.74
2022-12-18T22:16:02.134Z,89.43
2022-12-18T22:18:44.694Z,89.30
2022-12-18T22:21:36.706Z,90.97
2022-12-18T22:24:09.209Z,90.17
2022-12-18T22:26:40.173Z,89.45
2022-12-18T22:29:43.855Z,88.63
2022-12-18T22:32:29.441Z,88.22
2022-12-18T22:35:16.126Z,89.26
2022-12-18T22:37:50.410Z,88.56
2022-12-18T22:40:31.720Z,87.11
2022-12-18T22:43:07.403Z,88.87
2022-12-18T22:45:47.310Z,87.31
2022-12-18T22:48:22.477Z,88.64
2022-12-18T22:50:59.359Z,88.42
2022-12-18T22:53:26.968Z,88.29
2022-12-18T22:56:01.010Z,90.55
2022-12-18T22:58:31.682Z,91.27
2022-12-18T23:01:17.387Z,90.76
2022-12-18T23:04:00.035Z,87.30
2022-12-18T23:06:33.049Z,86.93
2022-12-18T23:09:05.358Z,85.99
2022-12-18T23:11:37.242Z,86.57
2022-12-18T23:14:04.592Z,86.49
2022-12-18T23:16:33.950Z,86.09
2022-12-18T23:19:25.783Z,85.83
2022-12-18T23:22:03.514Z,85.28
2022-12-18T23:24:37.668Z,85.32
2022-12-18T23:27:11.992Z,85.45
2022-12-18T23:29:41.945Z,84.88
2022-12-18T23:32:22.921Z,84.82
2022-12-18T23:34:59.637Z,84.78
2022-12-18T23:37:58.860Z,85.70
2022-12-18T23:40:45.358Z,87.24
2022-12-18T23:43:16.576Z,86.46
2022-12-18T23:45:52.554Z,86.49
2022-12-18T23:48:30.308Z,87.20
2022-12-18T23:51:08.189Z,87.43
2022-12-18T23:53:41.592Z,86.27
2022-12-18T23:56:17.305Z,85.60
2022-12-18T23:58:45.454Z,86.30
